Time;durP1;ratioP1;P1;durP2;ratioP2;P2;SDS_P1;SDS_P2;PMS_P1;PMS_P2;Temp;Humidity;BMP_temperature;BMP_pressure;BME280_temperature;BME280_humidity;BME280_pressure;Samples;Min_cycle;Max_cycle;Signal;HPM_P1;HPM_P2
2021/01/11 00:02:19;;;;;;;30.80;14.53;;;;;;;-1.61;100.00;101291.00;5026198;28;20040;-69
2021/01/11 00:04:46;;;;;;;24.37;11.90;;;;;;;-1.53;100.00;101282.72;5030495;28;20079;-69
2021/01/11 00:07:12;;;;;;;17.77;9.67;;;;;;;-1.47;100.00;101282.94;5037417;28;20037;-69
2021/01/11 00:09:38;;;;;;;23.70;12.10;;;;;;;-1.46;100.00;101286.44;5044852;28;20037;-69
2021/01/11 00:12:05;;;;;;;20.37;11.73;;;;;;;-1.39;100.00;101287.56;5023058;28;20106;-69
2021/01/11 00:14:32;;;;;;;23.43;10.97;;;;;;;-1.38;100.00;101285.00;5048102;28;20456;-69
2021/01/11 00:16:58;;;;;;;21.93;11.97;;;;;;;-1.33;100.00;101293.84;5039578;28;20033;-69
2021/01/11 00:19:24;;;;;;;18.77;11.57;;;;;;;-1.26;100.00;101287.16;5064714;28;20556;-69
2021/01/11 00:21:50;;;;;;;19.13;10.03;;;;;;;-1.26;99.94;101295.84;5035861;28;20079;-69
2021/01/11 00:24:17;;;;;;;20.30;10.50;;;;;;;-1.30;100.00;101287.91;5048016;28;20401;-67
2021/01/11 00:26:50;;;;;;;16.97;9.63;;;;;;;-1.25;100.00;101281.19;5048102;28;20040;-69
2021/01/11 00:29:21;;;;;;;19.03;8.53;;;;;;;-1.22;99.91;101279.56;5046324;28;20033;-69
2021/01/11 00:31:47;;;;;;;19.63;10.17;;;;;;;-1.22;99.81;101276.09;5050183;28;20045;-69
2021/01/11 00:34:13;;;;;;;18.47;9.53;;;;;;;-1.26;100.00;101269.94;5052946;28;20044;-69
2021/01/11 00:36:40;;;;;;;19.03;10.73;;;;;;;-1.16;99.51;101271.16;5053099;28;20045;-69
2021/01/11 00:39:06;;;;;;;21.40;9.97;;;;;;;-1.15;99.85;101266.00;5046185;28;20049;-69
2021/01/11 00:41:32;;;;;;;20.87;10.80;;;;;;;-1.12;99.96;101273.00;5053271;28;20075;-69
2021/01/11 00:43:59;;;;;;;19.70;10.90;;;;;;;-1.16;100.00;101263.38;5048382;28;20047;-69
2021/01/11 00:46:28;;;;;;;16.60;9.97;;;;;;;-1.17;100.00;101264.19;5049600;28;20090;-69
2021/01/11 00:48:55;;;;;;;20.43;11.03;;;;;;;-1.15;100.00;101267.72;5050533;28;20125;-69
2021/01/11 00:51:22;;;;;;;18.87;10.20;;;;;;;-1.15;100.00;101262.53;5049278;28;20486;-69
2021/01/11 00:53:48;;;;;;;23.13;11.80;;;;;;;-1.13;100.00;101268.66;5067045;28;20048;-69
2021/01/11 00:56:16;;;;;;;23.50;11.17;;;;;;;-1.11;100.00;101269.59;5049956;28;20090;-69
2021/01/11 00:58:42;;;;;;;20.80;11.07;;;;;;;-1.09;100.00;101265.38;5049620;28;20128;-69
2021/01/11 01:01:09;;;;;;;19.20;10.80;;;;;;;-1.06;100.00;101269.75;5048656;28;20102;-69
2021/01/11 01:03:38;;;;;;;21.97;11.03;;;;;;;-1.05;100.00;101264.63;5049172;28;20078;-69
2021/01/11 01:06:12;;;;;;;22.37;11.53;;;;;;;-1.14;100.00;101269.50;5069317;28;20755;-69
2021/01/11 01:08:38;;;;;;;17.52;10.10;;;;;;;-1.21;100.00;101276.16;5054531;28;20036;-69
2021/01/11 01:11:05;;;;;;;20.97;10.63;;;;;;;-1.20;100.00;101279.63;5048061;28;20048;-69
2021/01/11 01:13:31;;;;;;;22.93;10.73;;;;;;;-1.25;100.00;101273.41;5066286;28;20121;-67
2021/01/11 01:15:57;;;;;;;21.87;11.93;;;;;;;-1.26;100.00;101272.53;5046061;28;20598;-69
2021/01/11 01:18:24;;;;;;;26.23;12.00;;;;;;;-1.26;100.00;101282.91;5037372;28;20091;-69
2021/01/11 01:20:50;;;;;;;21.27;10.97;;;;;;;-1.19;100.00;101263.22;5029039;28;20055;-69
2021/01/11 01:23:17;;;;;;;22.63;11.47;;;;;;;-1.25;100.00;101265.63;5065379;28;20033;-69
2021/01/11 01:25:44;;;;;;;23.20;11.43;;;;;;;-1.33;100.00;101267.94;5063005;28;20691;-67
2021/01/11 01:28:10;;;;;;;24.37;10.43;;;;;;;-1.25;100.00;101266.50;5041386;28;20078;-69
2021/01/11 01:30:36;;;;;;;26.00;12.37;;;;;;;-1.28;100.00;101261.19;5027765;28;20052;-67
2021/01/11 01:33:02;;;;;;;24.07;12.43;;;;;;;-1.32;100.00;101259.31;5064253;28;20150;-67
2021/01/11 01:35:29;;;;;;;25.57;13.07;;;;;;;-1.37;100.00;101258.25;5045027;28;20071;-67
2021/01/11 01:37:57;;;;;;;25.43;13.90;;;;;;;-1.35;100.00;101254.00;5062606;28;20136;-67
2021/01/11 01:40:24;;;;;;;23.60;12.60;;;;;;;-1.37;100.00;101255.66;5045795;28;20041;-67
2021/01/11 01:42:51;;;;;;;23.80;12.77;;;;;;;-1.40;100.00;101252.97;5061886;28;20052;-67
2021/01/11 01:45:18;;;;;;;28.23;12.97;;;;;;;-1.42;100.00;101247.75;5034404;28;20040;-68
2021/01/11 01:47:46;;;;;;;24.73;11.77;;;;;;;-1.39;100.00;101244.38;5029840;28;20101;-68
2021/01/11 01:50:12;;;;;;;27.83;13.17;;;;;;;-1.41;100.00;101248.63;5058168;28;20037;-68
2021/01/11 01:52:39;;;;;;;26.93;12.93;;;;;;;-1.39;100.00;101252.16;5042529;28;20037;-68
2021/01/11 01:55:05;;;;;;;22.87;12.77;;;;;;;-1.42;100.00;101255.50;5044153;28;20041;-68
2021/01/11 01:57:32;;;;;;;25.33;12.87;;;;;;;-1.38;100.00;101246.13;5037149;28;20510;-67
2021/01/11 01:59:58;;;;;;;29.50;13.40;;;;;;;-1.35;100.00;101243.66;5063516;28;20036;-68
2021/01/11 02:02:24;;;;;;;26.93;14.53;;;;;;;-1.36;100.00;101252.25;5064738;28;20109;-68
2021/01/11 02:04:50;;;;;;;26.33;14.07;;;;;;;-1.34;100.00;101242.84;5046224;28;20105;-68
2021/01/11 02:07:33;;;;;;;23.83;13.33;;;;;;;-1.35;100.00;101241.06;5062233;28;20132;-68
2021/01/11 02:10:05;;;;;;;24.23;13.43;;;;;;;-1.33;100.00;101234.25;5022119;28;20048;-68
2021/01/11 02:12:47;;;;;;;28.73;14.37;;;;;;;-1.36;100.00;101239.28;5044685;28;20520;-68
2021/01/11 02:15:14;;;;;;;27.67;13.17;;;;;;;-1.39;100.00;101231.41;5027353;28;20116;-68
2021/01/11 02:17:52;;;;;;;23.10;12.40;;;;;;;-1.38;100.00;101235.75;5064203;28;20048;-70
2021/01/11 02:20:54;;;;;;;26.87;13.40;;;;;;;-1.40;100.00;101233.94;5051195;28;20047;-69
2021/01/11 02:24:05;;;;;;;26.43;13.90;;;;;;;-1.38;100.00;101235.75;5042885;28;20620;-69
2021/01/11 02:26:53;;;;;;;28.50;14.00;;;;;;;-1.39;100.00;101240.91;5062421;28;20044;-69
2021/01/11 02:29:38;;;;;;;30.17;14.97;;;;;;;-1.36;100.00;101230.63;5061180;28;20033;-69
2021/01/11 02:32:04;;;;;;;30.75;13.55;;;;;;;-1.33;100.00;101233.34;5029679;28;20036;-69
2021/01/11 02:34:32;;;;;;;25.03;13.53;;;;;;;-1.35;100.00;101232.41;5041865;28;20036;-69
2021/01/11 02:37:00;;;;;;;30.80;15.03;;;;;;;-1.32;100.00;101227.34;5063198;28;20048;-69
2021/01/11 02:39:26;;;;;;;27.23;15.57;;;;;;;-1.27;100.00;101223.19;5044927;28;20090;-69
2021/01/11 02:41:53;;;;;;;33.47;14.67;;;;;;;-1.27;100.00;101220.59;5063204;28;20523;-69
2021/01/11 02:44:19;;;;;;;27.83;13.67;;;;;;;-1.27;100.00;101220.59;5045217;28;20032;-69
2021/01/11 02:46:45;;;;;;;26.83;14.10;;;;;;;-1.27;100.00;101220.59;5062272;28;20062;-69
2021/01/11 02:49:20;;;;;;;31.63;16.60;;;;;;;-1.33;100.00;101215.22;5027365;28;20046;-69
2021/01/11 02:52:11;;;;;;;33.10;14.77;;;;;;;-1.30;100.00;101213.59;5045256;28;20040;-69
2021/01/11 02:54:39;;;;;;;26.23;14.27;;;;;;;-1.26;100.00;101205.13;5044422;28;20039;-69
2021/01/11 02:57:14;;;;;;;27.67;14.63;;;;;;;-1.29;100.00;101211.88;5061945;28;20044;-69
2021/01/11 02:59:46;;;;;;;28.47;15.70;;;;;;;-1.30;100.00;101207.53;5043657;28;20494;-69
2021/01/11 03:02:13;;;;;;;29.30;14.97;;;;;;;-1.30;100.00;101220.50;5044682;28;20086;-69
2021/01/11 03:04:40;;;;;;;30.07;15.47;;;;;;;-1.27;100.00;101223.19;5044735;28;20110;-69
2021/01/11 03:07:07;;;;;;;30.30;15.27;;;;;;;-1.23;100.00;101213.00;5045586;28;20045;-69
2021/01/11 03:09:37;;;;;;;30.33;16.20;;;;;;;-1.28;100.00;101214.53;5044284;28;20048;-69
2021/01/11 03:12:03;;;;;;;28.53;14.87;;;;;;;-1.25;100.00;101214.66;5045734;28;20121;-69
2021/01/11 03:14:29;;;;;;;31.63;16.63;;;;;;;-1.22;100.00;101209.56;5045258;28;20532;-69
2021/01/11 03:16:56;;;;;;;30.40;15.37;;;;;;;-1.25;100.00;101211.19;5046205;28;20051;-69
2021/01/11 03:19:22;;;;;;;36.13;16.10;;;;;;;-1.26;100.00;101202.53;5043721;28;20049;-69
2021/01/11 03:21:49;;;;;;;34.43;16.83;;;;;;;-1.27;100.00;101212.81;5062594;28;20041;-69
2021/01/11 03:24:16;;;;;;;34.07;15.93;;;;;;;-1.25;100.00;101195.63;5042238;28;20099;-69
2021/01/11 03:26:43;;;;;;;35.27;16.90;;;;;;;-1.24;100.00;101200.88;5043629;28;20081;-69
2021/01/11 03:29:10;;;;;;;32.93;16.47;;;;;;;-1.22;100.00;101194.03;5062765;28;20044;-69
2021/01/11 03:31:36;;;;;;;35.37;15.87;;;;;;;-1.18;100.00;101195.91;5046599;28;20385;-69
2021/01/11 03:34:03;;;;;;;33.97;16.13;;;;;;;-1.16;100.00;101195.97;5024457;28;20039;-70
2021/01/11 03:36:29;;;;;;;35.17;17.60;;;;;;;-1.22;100.00;101191.44;5028548;28;20066;-69
2021/01/11 03:38:58;;;;;;;36.83;16.73;;;;;;;-1.21;100.00;101179.34;5047162;28;20037;-69
2021/01/11 03:41:24;;;;;;;36.90;16.60;;;;;;;-1.13;100.00;101186.56;5067230;28;20063;-71
2021/01/11 03:43:51;;;;;;;30.40;16.43;;;;;;;-1.16;100.00;101183.00;5037978;28;20382;-71
2021/01/11 03:46:17;;;;;;;32.83;16.47;;;;;;;-1.19;100.00;101178.56;5055295;28;20505;-71
2021/01/11 03:48:45;;;;;;;31.17;15.40;;;;;;;-1.21;100.00;101182.81;5072127;28;20047;-73
2021/01/11 03:51:11;;;;;;;33.60;17.03;;;;;;;-1.19;100.00;101183.75;5069940;28;20041;-72
2021/01/11 03:53:38;;;;;;;35.03;17.17;;;;;;;-1.21;100.00;101177.63;5069296;28;20036;-77
2021/01/11 03:56:08;;;;;;;33.43;16.30;;;;;;;-1.11;100.00;101178.84;5050905;28;20044;-71
2021/01/11 03:58:34;;;;;;;29.23;15.03;;;;;;;-1.09;100.00;101171.09;5035422;28;20387;-71
2021/01/11 04:01:01;;;;;;;30.40;15.23;;;;;;;-1.08;100.00;101171.19;5030563;28;20036;-71
2021/01/11 04:03:27;;;;;;;30.77;15.07;;;;;;;-1.02;100.00;101170.50;5046361;28;20040;-71
2021/01/11 04:05:54;;;;;;;29.57;15.47;;;;;;;-1.00;100.00;101176.63;5060666;28;20049;-71
2021/01/11 04:08:20;;;;;;;32.17;16.37;;;;;;;-1.02;100.00;101171.38;5066649;28;20040;-71
2021/01/11 04:10:46;;;;;;;32.07;16.27;;;;;;;-1.01;100.00;101180.03;5059303;28;20460;-71
2021/01/11 04:13:12;;;;;;;27.27;16.23;;;;;;;-1.04;100.00;101173.03;5067184;28;20393;-71
2021/01/11 04:15:39;;;;;;;33.33;17.10;;;;;;;-1.06;100.00;101172.13;5067572;28;20037;-71
2021/01/11 04:18:05;;;;;;;31.80;15.80;;;;;;;-1.05;100.00;101167.81;5067101;28;20185;-71
2021/01/11 04:20:31;;;;;;;30.03;16.00;;;;;;;-1.01;100.00;101164.47;5036477;28;20049;-71
2021/01/11 04:22:58;;;;;;;39.07;17.20;;;;;;;-0.99;100.00;101174.09;5050491;28;21813;-71
2021/01/11 04:25:25;;;;;;;32.40;15.93;;;;;;;-0.96;100.00;101169.00;5053030;28;20666;-72
2021/01/11 04:28:01;;;;;;;30.67;16.57;;;;;;;-1.00;100.00;101176.63;5035771;28;20041;-72
2021/01/11 04:30:27;;;;;;;34.37;16.63;;;;;;;-1.02;100.00;101165.31;5048888;28;20060;-72
2021/01/11 04:32:54;;;;;;;33.87;16.73;;;;;;;-1.01;100.00;101173.16;5054146;28;20425;-72
2021/01/11 04:35:24;;;;;;;33.77;16.10;;;;;;;-1.04;100.00;101166.97;5068288;28;20098;-71
2021/01/11 04:37:50;;;;;;;27.73;14.67;;;;;;;-1.02;100.00;101166.19;5065229;28;20114;-72
2021/01/11 04:40:16;;;;;;;32.17;15.83;;;;;;;-1.01;100.00;101165.38;5051851;28;20433;-72
2021/01/11 04:42:56;;;;;;;28.33;14.67;;;;;;;-0.95;100.00;101167.28;5055396;28;20078;-72
2021/01/11 04:45:24;;;;;;;29.40;14.53;;;;;;;-0.97;100.00;101164.66;5029980;28;20072;-72
2021/01/11 04:47:54;;;;;;;30.87;15.83;;;;;;;-0.96;100.00;101166.41;5063872;28;20044;-72
2021/01/11 04:50:24;;;;;;;34.20;16.07;;;;;;;-0.99;100.00;101174.09;5044313;28;20036;-72
2021/01/11 04:52:51;;;;;;;32.50;17.47;;;;;;;-1.01;100.00;101167.06;5049128;28;20078;-72
2021/01/11 04:55:18;;;;;;;31.87;15.93;;;;;;;-0.94;100.00;101167.34;5036014;28;20514;-72
2021/01/11 04:57:55;;;;;;;30.43;15.33;;;;;;;-0.93;100.00;101163.91;5052242;28;20119;-71
2021/01/11 05:00:25;;;;;;;31.27;15.23;;;;;;;-0.96;100.00;101161.22;5049661;28;20090;-72
2021/01/11 05:03:05;;;;;;;30.37;16.00;;;;;;;-0.96;100.00;101165.53;5047778;28;20059;-72
2021/01/11 05:05:34;;;;;;;27.70;15.00;;;;;;;-0.97;100.00;101161.16;5053904;28;20032;-71
2021/01/11 05:08:00;;;;;;;32.40;16.63;;;;;;;-0.97;100.00;101164.66;5049259;28;20456;-72
2021/01/11 05:10:35;;;;;;;29.23;17.03;;;;;;;-0.93;100.00;101163.91;5053432;28;20103;-72
2021/01/11 05:13:07;;;;;;;29.13;14.30;;;;;;;-0.93;100.00;101158.72;5049498;28;20044;-72
2021/01/11 05:15:35;;;;;;;32.57;14.97;;;;;;;-0.95;100.00;101147.41;5050505;28;20040;-72
2021/01/11 05:18:02;;;;;;;25.83;14.37;;;;;;;-0.92;100.00;101149.25;5047708;28;20666;-72
2021/01/11 05:20:30;;;;;;;28.43;14.27;;;;;;;-0.91;100.00;101149.31;5049410;28;20056;-72
2021/01/11 05:22:59;;;;;;;30.60;15.20;;;;;;;-0.94;100.00;101159.56;5067393;28;20397;-72
2021/01/11 05:25:27;;;;;;;26.17;14.93;;;;;;;-0.87;100.00;101143.38;5054366;28;20063;-71
2021/01/11 05:28:04;;;;;;;28.10;13.93;;;;;;;-0.92;100.00;101141.47;5051818;28;20032;-71
2021/01/11 05:30:35;;;;;;;28.17;15.33;;;;;;;-0.92;100.00;101138.88;5053561;28;20098;-71
2021/01/11 05:33:03;;;;;;;30.33;15.37;;;;;;;-0.91;100.00;101143.22;5064251;28;20561;-71
2021/01/11 05:35:29;;;;;;;27.37;14.17;;;;;;;-0.90;100.00;101132.03;5052600;28;20041;-71
2021/01/11 05:37:55;;;;;;;28.93;15.50;;;;;;;-0.92;100.00;101136.28;5064653;28;20068;-71
2021/01/11 05:40:23;;;;;;;30.27;14.40;;;;;;;-0.94;100.00;101133.63;5050066;28;20028;-71
2021/01/11 05:42:57;;;;;;;27.80;16.43;;;;;;;-0.89;100.00;101132.06;5066693;28;20040;-71
2021/01/11 05:45:27;;;;;;;31.42;15.00;;;;;;;-0.95;100.00;101130.97;5047903;28;20028;-71
2021/01/11 05:47:59;;;;;;;28.27;14.30;;;;;;;-0.92;100.00;101125.91;5063627;28;20044;-71
2021/01/11 05:50:36;;;;;;;27.00;14.30;;;;;;;-0.92;100.00;101128.50;5066792;28;20040;-71
2021/01/11 05:53:16;;;;;;;31.50;15.10;;;;;;;-0.91;100.00;101128.56;5066670;28;20036;-71
2021/01/11 05:55:43;;;;;;;30.37;16.03;;;;;;;-0.87;100.00;101124.34;5067439;28;20054;-71
2021/01/11 05:58:10;;;;;;;25.60;14.17;;;;;;;-0.90;100.00;101119.06;5035887;28;20044;-71
2021/01/11 06:00:37;;;;;;;26.30;14.73;;;;;;;-0.90;100.00;101114.75;5063951;28;20037;-71
2021/01/11 06:03:05;;;;;;;30.17;14.77;;;;;;;-0.87;100.00;101111.38;5065947;28;20036;-71
2021/01/11 06:05:31;;;;;;;28.63;14.80;;;;;;;-0.90;100.00;101114.75;5046745;28;20048;-71
2021/01/11 06:07:59;;;;;;;26.17;14.27;;;;;;;-0.92;100.00;101107.75;5049123;28;20044;-71
2021/01/11 06:10:26;;;;;;;26.10;13.90;;;;;;;-0.95;100.00;101118.00;5053129;28;20558;-71
2021/01/11 06:12:54;;;;;;;28.50;14.30;;;;;;;-0.90;100.00;101114.75;5047763;28;20515;-71
2021/01/11 06:15:26;;;;;;;27.57;13.83;;;;;;;-0.89;100.00;101121.69;5062383;28;20086;-71
2021/01/11 06:17:54;;;;;;;26.93;14.47;;;;;;;-0.89;100.00;101119.09;5040991;28;20033;-71
2021/01/11 06:20:26;;;;;;;23.77;13.50;;;;;;;-0.87;100.00;101119.16;5051338;28;20040;-71
2021/01/11 06:22:52;;;;;;;26.43;13.77;;;;;;;-0.92;100.00;101119.00;5033800;28;20037;-69
2021/01/11 06:25:24;;;;;;;29.90;15.63;;;;;;;-0.89;100.00;101126.88;5063545;28;20095;-69
2021/01/11 06:27:55;;;;;;;28.37;14.80;;;;;;;-0.89;100.00;101126.00;5061160;28;20040;-69
2021/01/11 06:30:42;;;;;;;28.23;14.77;;;;;;;-0.88;100.00;101123.44;5050540;28;20039;-69
2021/01/11 06:33:12;;;;;;;28.83;15.43;;;;;;;-0.85;100.00;101125.25;5042905;28;20033;-69
2021/01/11 06:35:49;;;;;;;26.47;14.50;;;;;;;-0.88;100.00;101118.25;5051122;28;20033;-69
2021/01/11 06:38:25;;;;;;;28.43;14.87;;;;;;;-0.89;100.00;101123.41;5046247;28;20106;-69
2021/01/11 06:41:03;;;;;;;24.73;14.77;;;;;;;-0.89;100.00;101116.50;5064892;28;20058;-69
2021/01/11 06:43:42;;;;;;;25.67;15.07;;;;;;;-0.82;100.00;101114.13;5067339;28;20122;-71
2021/01/11 06:46:31;;;;;;;25.53;13.93;;;;;;;-0.86;100.00;101119.19;5068289;28;20045;-72
2021/01/11 06:49:04;;;;;;;28.10;13.77;;;;;;;-0.87;100.00;101124.34;5065924;28;20040;-70
2021/01/11 06:51:32;;;;;;;26.33;14.80;;;;;;;-0.83;100.00;101118.44;5062515;28;20040;-71
2021/01/11 06:54:11;;;;;;;27.73;14.67;;;;;;;-0.82;100.00;101111.53;5048409;28;20037;-71
2021/01/11 06:56:38;;;;;;;30.43;14.87;;;;;;;-0.82;100.00;101116.72;5037023;28;20033;-75
2021/01/11 06:59:18;;;;;;;33.80;15.37;;;;;;;-0.86;100.00;101106.22;5047683;28;20036;-70
2021/01/11 07:01:45;;;;;;;26.13;14.33;;;;;;;-0.86;100.00;101110.53;5053407;28;20041;-70
2021/01/11 07:04:44;;;;;;;28.83;15.27;;;;;;;-0.88;100.00;101089.72;5040502;28;20039;-69
2021/01/11 07:07:17;;;;;;;28.50;14.13;;;;;;;-0.88;100.00;101092.31;5065233;28;20079;-70
2021/01/11 07:09:52;;;;;;;28.30;14.80;;;;;;;-0.85;100.00;101097.59;5039144;28;20056;-71
2021/01/11 07:12:19;;;;;;;28.63;14.70;;;;;;;-0.84;100.00;101098.50;5041980;28;20037;-70
2021/01/11 07:14:58;;;;;;;29.90;15.50;;;;;;;-0.80;100.00;101087.38;5064499;28;20040;-70
2021/01/11 07:17:42;;;;;;;27.77;14.53;;;;;;;-0.81;100.00;101100.31;5048986;28;20037;-70
2021/01/11 07:20:13;;;;;;;25.47;13.97;;;;;;;-0.80;100.00;101099.47;5034862;28;20055;-70
2021/01/11 07:22:40;;;;;;;30.67;15.43;;;;;;;-0.79;100.00;101098.66;5041786;28;20381;-70
2021/01/11 07:25:23;;;;;;;28.27;15.33;;;;;;;-0.78;100.00;101101.28;5048525;28;20044;-70
2021/01/11 07:27:56;;;;;;;26.93;13.60;;;;;;;-0.77;100.00;101103.03;5063329;28;20040;-71
2021/01/11 07:30:24;;;;;;;25.37;13.47;;;;;;;-0.73;100.00;101091.06;5029423;28;20044;-70
2021/01/11 07:32:50;;;;;;;28.53;14.03;;;;;;;-0.75;100.00;101087.56;5043053;28;20035;-70
2021/01/11 07:35:16;;;;;;;25.30;14.23;;;;;;;-0.69;100.00;101090.31;5044848;28;20051;-70
2021/01/11 07:37:42;;;;;;;26.17;15.40;;;;;;;-0.73;100.00;101089.34;5043358;28;20037;-70
2021/01/11 07:40:09;;;;;;;28.40;14.80;;;;;;;-0.70;100.00;101088.56;5060373;28;20048;-71
2021/01/11 07:42:36;;;;;;;28.43;14.73;;;;;;;-0.69;100.00;101096.38;5042595;28;20048;-71
2021/01/11 07:45:08;;;;;;;28.43;14.67;;;;;;;-0.67;100.00;101091.28;5048550;28;20102;-70
2021/01/11 07:47:34;;;;;;;28.43;15.57;;;;;;;-0.67;100.00;101092.16;5031293;28;20641;-70
2021/01/11 07:50:00;;;;;;;27.00;14.43;;;;;;;-0.70;100.00;101081.66;5027836;28;20115;-70
2021/01/11 07:52:27;;;;;;;32.43;16.80;;;;;;;-0.68;100.00;101079.97;5058610;28;20082;-70
2021/01/11 07:55:04;;;;;;;25.03;13.77;;;;;;;-0.69;100.00;101090.31;5043538;28;20055;-70
2021/01/11 07:57:31;;;;;;;31.00;16.83;;;;;;;-0.70;100.00;101091.16;5045525;28;20040;-71
2021/01/11 08:00:09;;;;;;;31.37;15.83;;;;;;;-0.70;100.00;101084.25;5042281;28;20072;-70
2021/01/11 08:02:36;;;;;;;29.87;15.33;;;;;;;-0.71;100.00;101079.91;5056142;28;20040;-70
2021/01/11 08:05:04;;;;;;;26.70;14.37;;;;;;;-0.69;100.00;101085.13;5042445;28;20094;-70
2021/01/11 08:07:32;;;;;;;27.60;15.23;;;;;;;-0.67;100.00;101080.91;5033228;28;20040;-70
2021/01/11 08:10:00;;;;;;;31.37;15.77;;;;;;;-0.65;100.00;101092.19;5051199;28;20106;-70
2021/01/11 08:12:28;;;;;;;27.57;14.33;;;;;;;-0.69;100.00;101088.59;5058068;28;20040;-70
2021/01/11 08:15:04;;;;;;;26.00;14.13;;;;;;;-0.62;100.00;101085.38;5054170;28;20388;-71
2021/01/11 08:17:32;;;;;;;25.43;13.40;;;;;;;-0.59;100.00;101090.69;5030553;28;20164;-71
2021/01/11 08:19:59;;;;;;;25.33;14.07;;;;;;;-0.62;100.00;101090.56;5053827;28;20485;-70
2021/01/11 08:22:30;;;;;;;23.27;13.40;;;;;;;-0.63;100.00;101094.00;5060713;28;20041;-70
2021/01/11 08:24:58;;;;;;;22.83;12.40;;;;;;;-0.61;100.00;101092.31;5022558;28;20126;-71
2021/01/11 08:27:30;;;;;;;25.87;14.00;;;;;;;-0.58;100.00;101094.16;5024117;28;20517;-71
2021/01/11 08:30:00;;;;;;;26.27;12.80;;;;;;;-0.63;100.00;101093.13;5049055;28;20055;-70
2021/01/11 08:32:27;;;;;;;27.43;14.23;;;;;;;-0.65;100.00;101100.84;5051362;28;20098;-71
2021/01/11 08:34:54;;;;;;;28.00;14.57;;;;;;;-0.64;100.00;101089.66;5046943;28;20040;-70
2021/01/11 08:37:40;;;;;;;23.80;13.63;;;;;;;-0.63;100.00;101099.19;5047484;28;20028;-70
2021/01/11 08:40:12;;;;;;;27.73;14.10;;;;;;;-0.62;100.00;101087.97;5044079;28;20048;-70
2021/01/11 08:42:39;;;;;;;27.00;14.60;;;;;;;-0.58;100.00;101095.03;5038442;28;20114;-70
2021/01/11 08:45:23;;;;;;;27.60;13.60;;;;;;;-0.58;100.00;101089.84;5038205;28;20553;-70
2021/01/11 08:48:10;;;;;;;21.83;12.63;;;;;;;-0.55;100.00;101094.25;5057031;28;20040;-70
2021/01/11 08:50:39;;;;;;;32.23;14.10;;;;;;;-0.57;100.00;101094.19;5053097;28;20594;-70
2021/01/11 08:53:25;;;;;;;24.73;13.20;;;;;;;-0.50;100.00;101094.41;5027046;28;20051;-70
2021/01/11 08:56:03;;;;;;;25.30;13.13;;;;;;;-0.50;100.00;101090.09;5066421;28;20499;-70
2021/01/11 08:58:31;;;;;;;25.33;12.83;;;;;;;-0.43;100.00;101089.41;5023306;28;20041;-70
2021/01/11 09:01:08;;;;;;;25.30;13.40;;;;;;;-0.42;100.00;101093.81;5046180;28;20048;-70
2021/01/11 09:03:42;;;;;;;23.13;13.30;;;;;;;-0.46;100.00;101093.66;5043891;28;20025;-74
2021/01/11 09:06:09;;;;;;;24.53;13.43;;;;;;;-0.46;100.00;101093.66;5057409;28;20044;-75
2021/01/11 09:08:35;;;;;;;23.93;14.07;;;;;;;-0.43;100.00;101089.41;5064480;28;20079;-72
2021/01/11 09:11:08;;;;;;;25.20;14.33;;;;;;;-0.39;100.00;101093.88;5038895;28;20041;-73
2021/01/11 09:13:34;;;;;;;26.92;13.38;;;;;;;-0.42;100.00;101092.88;5062153;28;20036;-71
2021/01/11 09:16:14;;;;;;;23.23;13.53;;;;;;;-0.41;100.00;101099.88;5060385;28;20224;-71
2021/01/11 09:18:40;;;;;;;26.63;14.00;;;;;;;-0.38;100.00;101097.34;5059724;28;20044;-71
2021/01/11 09:21:07;;;;;;;24.43;13.83;;;;;;;-0.34;100.00;101096.59;5061946;28;20090;-71
2021/01/11 09:23:33;;;;;;;25.17;14.50;;;;;;;-0.41;100.00;101099.88;5052135;28;20082;-74
2021/01/11 09:26:00;;;;;;;26.40;14.53;;;;;;;-0.44;100.00;101098.03;5023869;28;20051;-72
2021/01/11 09:28:27;;;;;;;22.43;13.00;;;;;;;-0.42;100.00;101096.41;5054044;28;20102;-70
2021/01/11 09:30:54;;;;;;;22.90;13.77;;;;;;;-0.45;100.00;101087.63;5023914;28;20048;-76
2021/01/11 09:33:20;;;;;;;27.53;12.93;;;;;;;-0.47;100.00;101089.28;5063011;28;20089;-73
2021/01/11 09:35:46;;;;;;;24.73;14.40;;;;;;;-0.48;100.00;101091.00;5065685;28;20048;-73
2021/01/11 09:38:12;;;;;;;25.10;14.50;;;;;;;-0.42;100.00;101079.91;5057212;28;20036;-73
2021/01/11 09:40:38;;;;;;;27.60;13.63;;;;;;;-0.43;100.00;101084.22;5028232;28;20090;-73
2021/01/11 09:43:05;;;;;;;25.87;13.90;;;;;;;-0.45;100.00;101082.41;5035618;28;20037;-71
2021/01/11 09:45:31;;;;;;;25.23;14.80;;;;;;;-0.43;100.00;101083.34;5055070;28;20045;-74
2021/01/11 09:47:57;;;;;;;26.27;13.37;;;;;;;-0.42;100.00;101072.13;5040215;28;20037;-77
2021/01/11 09:50:23;;;;;;;23.43;13.93;;;;;;;-0.43;100.00;101083.34;5045159;28;20036;-73
2021/01/11 09:52:50;;;;;;;23.20;13.27;;;;;;;-0.40;100.00;101092.13;5043783;28;20098;-73
2021/01/11 09:55:16;;;;;;;23.60;13.93;;;;;;;-0.41;100.00;101073.91;5059715;28;20044;-74
2021/01/11 09:57:42;;;;;;;26.93;14.30;;;;;;;-0.41;100.00;101073.91;5034561;28;20049;-75
2021/01/11 10:00:10;;;;;;;27.33;14.27;;;;;;;-0.44;100.00;101073.81;5041231;28;20036;-75
2021/01/11 10:02:36;;;;;;;26.13;13.53;;;;;;;-0.43;100.00;101078.16;5065436;28;20048;-72
2021/01/11 10:05:03;;;;;;;26.20;13.90;;;;;;;-0.44;100.00;101079.00;5040513;28;20055;-70
2021/01/11 10:07:29;;;;;;;23.33;13.00;;;;;;;-0.45;100.00;101069.44;5066456;28;20040;-76
2021/01/11 10:09:55;;;;;;;32.17;13.20;;;;;;;-0.41;100.00;101064.41;5069617;28;20035;-72
2021/01/11 10:12:21;;;;;;;26.07;14.10;;;;;;;-0.42;100.00;101073.03;5059112;28;20083;-72
2021/01/11 10:14:47;;;;;;;26.87;14.37;;;;;;;-0.46;100.00;101067.69;5059012;28;20110;-75
2021/01/11 10:17:13;;;;;;;25.87;14.17;;;;;;;-0.44;100.00;101066.00;5053091;28;20049;-72
2021/01/11 10:19:40;;;;;;;24.60;13.37;;;;;;;-0.44;100.00;101061.69;5038350;28;20127;-72
2021/01/11 10:22:06;;;;;;;24.37;13.00;;;;;;;-0.41;100.00;101063.53;5053729;28;20049;-73
2021/01/11 10:24:32;;;;;;;24.00;12.80;;;;;;;-0.31;100.00;101063.84;5045068;28;20048;-71
2021/01/11 10:27:04;;;;;;;26.43;13.90;;;;;;;-0.38;100.00;101055.81;5053793;28;20074;-71
2021/01/11 10:29:30;;;;;;;24.53;14.33;;;;;;;-0.34;100.00;101058.56;5038697;28;20101;-71
2021/01/11 10:31:56;;;;;;;22.87;13.47;;;;;;;-0.32;100.00;101053.41;5056692;28;20036;-71
2021/01/11 10:34:23;;;;;;;23.97;13.30;;;;;;;-0.39;100.00;101041.97;5036505;28;20695;-71
2021/01/11 10:36:51;;;;;;;23.43;14.13;;;;;;;-0.41;100.00;101042.75;5056894;28;20040;-71
2021/01/11 10:39:23;;;;;;;24.57;12.60;;;;;;;-0.31;100.00;101034.41;5054130;28;20052;-72
2021/01/11 10:41:54;;;;;;;23.33;13.73;;;;;;;-0.34;100.00;101042.09;5054703;28;20044;-71
2021/01/11 10:44:22;;;;;;;22.93;11.90;;;;;;;-0.26;100.00;101034.53;5035356;28;20079;-71
2021/01/11 10:46:52;;;;;;;25.30;12.90;;;;;;;-0.25;100.00;101029.41;5056500;28;20620;-71
2021/01/11 10:49:19;;;;;;;23.40;12.83;;;;;;;-0.23;100.00;101027.72;5032520;28;20141;-72
2021/01/11 10:51:46;;;;;;;24.23;12.60;;;;;;;-0.25;100.00;101029.41;5009175;28;20456;-72
2021/01/11 10:54:12;;;;;;;21.13;12.60;;;;;;;-0.26;100.00;101027.63;5035679;28;20041;-71
2021/01/11 10:56:39;;;;;;;20.77;12.67;;;;;;;-0.19;100.00;101013.09;5044730;28;20036;-72
2021/01/11 10:59:05;;;;;;;22.43;12.40;;;;;;;-0.20;100.00;101007.03;5061188;28;20043;-69
2021/01/11 11:01:31;;;;;;;21.10;13.00;;;;;;;-0.25;100.00;101007.72;5060134;28;20043;-69
2021/01/11 11:03:57;;;;;;;22.27;11.63;;;;;;;-0.27;100.00;101002.50;5062245;28;20040;-70
2021/01/11 11:06:25;;;;;;;19.90;11.47;;;;;;;-0.23;100.00;101006.06;5059235;28;20036;-69
2021/01/11 11:08:52;;;;;;;20.47;12.00;;;;;;;-0.25;100.00;100997.34;5039037;28;20063;-69
2021/01/11 11:11:19;;;;;;;22.80;11.60;;;;;;;-0.23;100.00;100985.31;5039849;28;20689;-69
2021/01/11 11:13:45;;;;;;;24.20;13.07;;;;;;;-0.27;100.00;100992.09;5032402;28;20055;-69